Time;durP1;ratioP1;P1;durP2;ratioP2;P2;SDS_P1;SDS_P2;PMS_P1;PMS_P2;Temp;Humidity;BMP_temperature;BMP_pressure;BME280_temperature;BME280_humidity;BME280_pressure;Samples;Min_cycle;Max_cycle;Signal;HPM_P1;HPM_P2
2021/12/26 00:00:25;;;;;;;9.95;6.65;;;5.00;99.90;;;;;;5047621;28;20210;-77
2021/12/26 00:03:11;;;;;;;9.82;7.60;;;5.00;99.90;;;;;;5049973;28;20313;-77
2021/12/26 00:06:00;;;;;;;10.05;8.45;;;4.90;99.90;;;;;;5043277;28;20212;-77
2021/12/26 00:08:47;;;;;;;11.23;8.43;;;4.90;99.90;;;;;;5050999;28;20351;-77
2021/12/26 00:11:34;;;;;;;11.63;8.52;;;4.90;99.90;;;;;;5042457;28;20271;-77
2021/12/26 00:14:20;;;;;;;12.00;9.20;;;4.90;99.90;;;;;;5052432;28;20752;-77
2021/12/26 00:17:06;;;;;;;10.30;8.43;;;4.90;99.90;;;;;;5048312;28;20209;-77
2021/12/26 00:19:51;;;;;;;12.02;8.93;;;5.00;99.90;;;;;;5042848;28;20387;-77
2021/12/26 00:22:37;;;;;;;10.98;9.07;;;5.00;99.90;;;;;;5040367;28;20204;-77
2021/12/26 00:25:23;;;;;;;11.35;10.15;;;5.00;99.90;;;;;;5051064;28;20225;-77
2021/12/26 00:28:10;;;;;;;15.05;10.98;;;4.90;99.90;;;;;;5049062;28;20237;-76
2021/12/26 00:30:56;;;;;;;12.27;10.10;;;4.90;99.90;;;;;;5045691;28;20201;-77
2021/12/26 00:33:41;;;;;;;11.80;9.82;;;4.90;99.90;;;;;;5049213;28;20327;-77
2021/12/26 00:36:27;;;;;;;11.15;8.85;;;4.90;99.90;;;;;;5041820;28;20276;-77
2021/12/26 00:39:15;;;;;;;10.55;9.43;;;4.80;99.90;;;;;;5049988;28;20216;-77
2021/12/26 00:42:01;;;;;;;14.35;10.15;;;4.90;99.90;;;;;;5052349;28;20209;-77
2021/12/26 00:44:48;;;;;;;11.63;9.25;;;4.90;99.90;;;;;;5050412;28;20205;-77
2021/12/26 00:47:35;;;;;;;9.98;8.57;;;4.90;99.90;;;;;;5049010;28;20223;-77
2021/12/26 00:50:25;;;;;;;10.50;8.02;;;4.90;99.90;;;;;;5048262;28;20208;-77
2021/12/26 00:53:11;;;;;;;11.18;9.43;;;4.80;99.90;;;;;;5047411;28;20283;-77
2021/12/26 00:55:57;;;;;;;12.20;8.88;;;4.80;99.90;;;;;;5051187;28;20212;-77
2021/12/26 00:58:43;;;;;;;9.73;7.68;;;4.80;99.90;;;;;;5051645;28;20225;-77
2021/12/26 01:01:30;;;;;;;11.43;9.00;;;4.80;99.90;;;;;;5049835;28;20702;-77
2021/12/26 01:04:16;;;;;;;9.48;8.02;;;4.80;99.90;;;;;;5049644;28;20201;-78
2021/12/26 01:07:07;;;;;;;11.13;8.32;;;4.80;99.90;;;;;;5051790;28;20273;-78
2021/12/26 01:09:53;;;;;;;11.27;8.95;;;4.70;99.90;;;;;;5045481;28;20600;-78
2021/12/26 01:12:40;;;;;;;11.18;8.00;;;4.70;99.90;;;;;;5047732;28;20702;-77
2021/12/26 01:15:26;;;;;;;9.73;8.18;;;4.80;99.90;;;;;;5051657;28;20216;-77
2021/12/26 01:18:13;;;;;;;12.98;8.80;;;4.80;99.90;;;;;;5051294;28;20220;-77
2021/12/26 01:21:09;;;;;;;11.48;9.27;;;4.80;99.90;;;;;;5040538;28;20659;-78
2021/12/26 01:23:57;;;;;;;9.90;8.48;;;4.80;99.90;;;;;;5046562;28;20231;-78
2021/12/26 01:26:43;;;;;;;9.20;7.72;;;4.80;99.90;;;;;;5044435;28;20280;-78
2021/12/26 01:29:28;;;;;;;9.27;7.90;;;4.80;99.90;;;;;;5048674;28;20221;-77
2021/12/26 01:32:14;;;;;;;9.50;7.68;;;4.80;99.90;;;;;;5046048;28;20289;-77
2021/12/26 01:35:01;;;;;;;11.75;9.52;;;4.80;99.90;;;;;;5048244;28;20217;-77
2021/12/26 01:37:47;;;;;;;11.50;8.85;;;4.70;99.90;;;;;;5052375;28;20197;-77
2021/12/26 01:40:35;;;;;;;10.00;7.57;;;4.70;99.90;;;;;;5044927;28;20205;-77
2021/12/26 01:43:23;;;;;;;10.13;7.47;;;4.70;99.90;;;;;;5048403;28;20204;-77
2021/12/26 01:46:09;;;;;;;11.50;8.48;;;4.70;99.90;;;;;;5048766;28;20205;-77
2021/12/26 01:49:03;;;;;;;8.75;7.25;;;4.70;99.90;;;;;;5045931;28;20232;-77
2021/12/26 01:51:53;;;;;;;10.38;8.68;;;4.70;99.90;;;;;;5047515;28;20768;-77
2021/12/26 01:54:44;;;;;;;11.18;9.07;;;4.80;99.90;;;;;;5045145;28;20204;-77
2021/12/26 01:57:30;;;;;;;10.60;8.70;;;4.80;99.90;;;;;;5049008;28;20272;-77
2021/12/26 02:00:16;;;;;;;10.70;8.95;;;4.90;99.90;;;;;;5045347;28;20205;-76
2021/12/26 02:03:02;;;;;;;10.02;8.45;;;4.80;99.90;;;;;;5049273;28;20234;-77
2021/12/26 02:05:48;;;;;;;11.25;9.05;;;4.80;99.90;;;;;;5049459;28;20695;-77
2021/12/26 02:08:36;;;;;;;12.18;9.48;;;4.80;99.90;;;;;;5039953;28;20262;-76
2021/12/26 02:11:22;;;;;;;11.27;8.80;;;4.80;99.90;;;;;;5049871;28;20580;-76
2021/12/26 02:14:08;;;;;;;10.45;8.70;;;4.70;99.90;;;;;;5046848;28;20201;-76
2021/12/26 02:16:54;;;;;;;12.70;9.35;;;4.80;99.90;;;;;;5049990;28;20208;-76
2021/12/26 02:19:43;;;;;;;11.95;9.60;;;4.80;99.90;;;;;;5039424;28;20357;-76
2021/12/26 02:22:32;;;;;;;10.02;8.38;;;4.90;99.90;;;;;;5049006;28;20344;-76
2021/12/26 02:25:30;;;;;;;12.82;9.15;;;4.90;99.90;;;;;;5050758;28;20336;-76
2021/12/26 02:28:17;;;;;;;11.35;8.77;;;5.00;99.90;;;;;;5046103;28;20224;-76
2021/12/26 02:31:02;;;;;;;10.52;8.85;;;5.00;99.90;;;;;;5047702;28;20611;-76
2021/12/26 02:33:48;;;;;;;11.70;9.80;;;5.00;99.90;;;;;;5040404;28;20336;-76
2021/12/26 02:36:35;;;;;;;10.82;8.80;;;4.90;99.90;;;;;;5046499;28;20681;-76
2021/12/26 02:39:21;;;;;;;12.05;10.13;;;4.90;99.90;;;;;;5045732;28;20221;-76
2021/12/26 02:42:07;;;;;;;10.93;9.02;;;4.90;99.90;;;;;;5045408;28;20276;-76
2021/12/26 02:44:52;;;;;;;11.38;9.60;;;4.90;99.90;;;;;;5049374;28;20320;-76
2021/12/26 02:47:40;;;;;;;12.07;9.05;;;4.80;99.90;;;;;;5046145;28;20233;-76
2021/12/26 02:50:30;;;;;;;12.80;10.45;;;4.80;99.90;;;;;;5047128;28;20251;-75
2021/12/26 02:53:20;;;;;;;13.77;9.95;;;4.80;99.90;;;;;;5046929;28;20201;-75
2021/12/26 02:56:06;;;;;;;11.63;8.98;;;4.80;99.90;;;;;;5046717;28;20220;-75
2021/12/26 02:58:52;;;;;;;13.20;10.32;;;4.80;99.90;;;;;;5040195;28;20213;-76
2021/12/26 03:01:37;;;;;;;17.38;10.48;;;4.80;99.90;;;;;;5050407;28;20694;-76
2021/12/26 03:04:23;;;;;;;12.70;10.35;;;4.80;99.90;;;;;;5048284;28;20295;-76
2021/12/26 03:07:08;;;;;;;12.70;9.75;;;4.80;99.90;;;;;;5044810;28;20224;-76
2021/12/26 03:09:59;;;;;;;11.00;9.23;;;4.80;99.90;;;;;;5048246;28;20332;-76
2021/12/26 03:12:45;;;;;;;12.68;9.02;;;4.90;99.90;;;;;;5040930;28;20224;-76
2021/12/26 03:15:32;;;;;;;14.35;10.70;;;4.90;99.90;;;;;;5045277;28;20216;-76
2021/12/26 03:18:18;;;;;;;12.65;9.30;;;4.80;99.90;;;;;;5041658;28;20217;-76
2021/12/26 03:21:04;;;;;;;11.70;9.45;;;4.80;99.90;;;;;;5047895;28;20244;-76
2021/12/26 03:23:50;;;;;;;12.60;9.40;;;4.80;99.90;;;;;;5049540;28;20303;-76
2021/12/26 03:26:37;;;;;;;16.08;10.65;;;4.70;99.90;;;;;;5052439;28;20290;-76
2021/12/26 03:29:22;;;;;;;13.07;9.80;;;4.60;99.90;;;;;;5048192;28;20229;-76
2021/12/26 03:32:09;;;;;;;11.70;8.85;;;4.60;99.90;;;;;;5039495;28;20261;-76
2021/12/26 03:34:55;;;;;;;14.98;10.45;;;4.70;99.90;;;;;;5044807;28;20379;-76
2021/12/26 03:37:42;;;;;;;11.32;9.70;;;4.80;99.90;;;;;;5043434;28;20571;-76
2021/12/26 03:40:28;;;;;;;13.57;10.68;;;4.80;99.90;;;;;;5052176;28;20774;-76
2021/12/26 03:43:16;;;;;;;14.48;9.68;;;4.80;99.90;;;;;;5051768;28;20351;-76
2021/12/26 03:46:02;;;;;;;14.32;10.32;;;4.90;99.90;;;;;;5051464;28;20350;-76
2021/12/26 03:48:48;;;;;;;12.68;10.30;;;4.80;99.90;;;;;;5051127;28;20252;-76
2021/12/26 03:51:34;;;;;;;12.93;9.70;;;4.80;99.90;;;;;;5050679;28;20697;-75
2021/12/26 03:54:20;;;;;;;14.00;10.45;;;4.80;99.90;;;;;;5045932;28;20272;-75
2021/12/26 03:57:06;;;;;;;10.07;8.98;;;4.80;99.90;;;;;;5050326;28;20720;-76
2021/12/26 03:59:53;;;;;;;12.18;10.32;;;4.80;99.90;;;;;;5053034;28;20307;-76
2021/12/26 04:02:39;;;;;;;11.52;10.23;;;4.90;99.90;;;;;;5050326;28;20291;-75
2021/12/26 04:05:25;;;;;;;12.27;9.88;;;4.90;99.90;;;;;;5050662;28;20291;-76
2021/12/26 04:08:11;;;;;;;13.27;10.07;;;4.80;99.90;;;;;;5049492;28;20258;-76
2021/12/26 04:10:57;;;;;;;12.77;10.15;;;4.80;99.90;;;;;;5050481;28;20209;-76
2021/12/26 04:13:43;;;;;;;16.17;11.82;;;4.90;99.90;;;;;;5052670;28;20579;-76
2021/12/26 04:16:30;;;;;;;12.38;9.35;;;4.90;99.90;;;;;;5046302;28;20207;-76
2021/12/26 04:19:16;;;;;;;14.75;10.50;;;4.90;99.90;;;;;;5043845;28;20240;-76
2021/12/26 04:22:02;;;;;;;20.80;10.95;;;5.00;99.90;;;;;;5052418;28;20208;-77
2021/12/26 04:24:48;;;;;;;15.63;11.32;;;4.80;99.90;;;;;;5050606;28;20205;-77
2021/12/26 04:27:35;;;;;;;16.55;10.63;;;4.80;99.90;;;;;;5043688;28;20236;-77
2021/12/26 04:30:21;;;;;;;13.43;10.35;;;4.80;99.90;;;;;;5048350;28;20256;-76
2021/12/26 04:33:09;;;;;;;13.25;10.73;;;4.80;99.90;;;;;;5047919;28;20216;-76
2021/12/26 04:35:55;;;;;;;13.63;10.10;;;4.80;99.90;;;;;;5047741;28;20199;-76
2021/12/26 04:38:40;;;;;;;13.80;10.90;;;4.80;99.90;;;;;;5042889;28;20229;-76
2021/12/26 04:41:26;;;;;;;13.32;10.80;;;4.80;99.90;;;;;;5048419;28;20224;-76
2021/12/26 04:44:12;;;;;;;15.20;10.48;;;4.80;99.90;;;;;;5051785;28;20327;-76
2021/12/26 04:46:57;;;;;;;16.92;12.07;;;4.70;99.90;;;;;;5047134;28;20208;-76
2021/12/26 04:49:44;;;;;;;15.88;11.23;;;4.60;99.90;;;;;;5051461;28;20236;-76
2021/12/26 04:52:30;;;;;;;15.35;12.00;;;4.70;99.90;;;;;;5051800;28;20204;-76
2021/12/26 04:55:18;;;;;;;15.90;11.48;;;4.80;99.90;;;;;;5039912;28;20204;-76
2021/12/26 04:58:04;;;;;;;15.50;12.25;;;4.80;99.90;;;;;;5047445;28;20243;-77
2021/12/26 05:00:50;;;;;;;17.77;12.15;;;4.80;99.90;;;;;;5050793;28;20324;-76
2021/12/26 05:03:36;;;;;;;16.38;13.10;;;4.80;99.90;;;;;;5051930;28;20576;-77
2021/12/26 05:06:23;;;;;;;15.05;11.65;;;4.80;99.90;;;;;;5043904;28;20220;-76
2021/12/26 05:09:09;;;;;;;18.30;11.00;;;4.80;99.90;;;;;;5045693;28;20236;-77
2021/12/26 05:11:57;;;;;;;14.50;11.60;;;4.80;99.90;;;;;;5052020;28;20260;-76
2021/12/26 05:14:43;;;;;;;17.27;12.15;;;4.80;99.90;;;;;;5048303;28;20209;-76
2021/12/26 05:17:30;;;;;;;18.40;12.48;;;4.80;99.90;;;;;;5043370;28;20204;-76
2021/12/26 05:20:18;;;;;;;15.73;11.38;;;4.80;99.90;;;;;;5050908;28;20197;-77
2021/12/26 05:23:05;;;;;;;15.10;11.55;;;4.80;99.90;;;;;;5048530;28;20572;-77
2021/12/26 05:25:51;;;;;;;15.93;11.00;;;4.80;99.90;;;;;;5041222;28;20201;-77
2021/12/26 05:28:36;;;;;;;15.13;11.20;;;4.80;99.90;;;;;;5048602;28;20702;-77
2021/12/26 05:31:22;;;;;;;16.25;11.25;;;4.80;99.90;;;;;;5048934;28;20702;-76
2021/12/26 05:34:07;;;;;;;14.80;11.00;;;4.70;99.90;;;;;;5050293;28;20205;-77
2021/12/26 05:36:53;;;;;;;15.88;11.70;;;4.80;99.90;;;;;;5040162;28;20204;-77
2021/12/26 05:39:42;;;;;;;14.43;10.43;;;4.80;99.90;;;;;;5046136;28;20295;-77
2021/12/26 05:42:28;;;;;;;16.25;11.35;;;4.80;99.90;;;;;;5050624;28;20269;-77
2021/12/26 05:45:14;;;;;;;15.48;10.50;;;4.80;99.90;;;;;;5048179;28;20215;-76
2021/12/26 05:48:00;;;;;;;13.63;10.27;;;4.80;99.90;;;;;;5049709;28;20344;-77
2021/12/26 05:50:46;;;;;;;15.38;11.98;;;4.90;99.90;;;;;;5046330;28;20559;-77
2021/12/26 05:53:32;;;;;;;16.35;12.32;;;4.90;99.90;;;;;;5049792;28;20201;-77
2021/12/26 05:56:19;;;;;;;15.60;10.38;;;4.90;99.90;;;;;;5046722;28;20692;-76
2021/12/26 05:59:05;;;;;;;15.73;11.18;;;4.90;99.90;;;;;;5051006;28;20698;-77
2021/12/26 06:01:51;;;;;;;16.48;12.07;;;4.80;99.90;;;;;;5049918;28;20201;-77
2021/12/26 06:04:36;;;;;;;17.13;12.45;;;4.80;99.90;;;;;;5043995;28;20224;-77
2021/12/26 06:07:22;;;;;;;17.35;12.82;;;4.80;99.90;;;;;;5042591;28;20216;-76
2021/12/26 06:10:08;;;;;;;17.27;12.75;;;4.80;99.90;;;;;;5049610;28;20237;-76
2021/12/26 06:12:55;;;;;;;19.17;13.50;;;4.70;99.90;;;;;;5041088;28;20201;-77
2021/12/26 06:15:41;;;;;;;15.02;11.27;;;4.70;99.90;;;;;;5043858;28;20690;-76
2021/12/26 06:18:27;;;;;;;16.58;11.85;;;4.80;99.90;;;;;;5045656;28;20220;-76
2021/12/26 06:21:12;;;;;;;17.52;11.82;;;5.00;99.90;;;;;;5050418;28;20708;-77
2021/12/26 06:23:58;;;;;;;20.25;12.30;;;4.90;99.90;;;;;;5037197;28;20205;-77
2021/12/26 06:26:46;;;;;;;18.63;12.13;;;4.80;99.90;;;;;;5045032;28;20208;-77
2021/12/26 06:29:33;;;;;;;17.35;12.50;;;4.80;99.90;;;;;;5046745;28;20310;-76
2021/12/26 06:32:19;;;;;;;20.15;13.20;;;4.80;99.90;;;;;;5038825;28;20209;-77
2021/12/26 06:35:05;;;;;;;18.88;13.35;;;4.80;99.90;;;;;;5045134;28;20246;-76
2021/12/26 06:37:51;;;;;;;17.40;13.30;;;4.80;99.90;;;;;;5048052;28;20240;-76
2021/12/26 06:40:37;;;;;;;17.40;12.55;;;4.80;99.90;;;;;;5050429;28;20720;-77
2021/12/26 06:43:23;;;;;;;19.05;11.88;;;4.80;99.90;;;;;;5036659;28;20200;-76
2021/12/26 06:46:10;;;;;;;15.45;11.02;;;4.80;99.90;;;;;;5045496;28;20209;-76
2021/12/26 06:48:56;;;;;;;18.45;13.68;;;4.80;99.90;;;;;;5048058;28;20237;-76
2021/12/26 06:51:41;;;;;;;16.73;12.38;;;4.90;99.90;;;;;;5043015;28;20200;-76
2021/12/26 06:54:27;;;;;;;17.48;12.57;;;4.80;99.90;;;;;;5045592;28;20208;-76
2021/12/26 06:57:13;;;;;;;20.02;13.52;;;4.80;99.90;;;;;;5055735;28;20200;-76
2021/12/26 06:59:58;;;;;;;19.98;12.45;;;4.80;99.90;;;;;;5047439;28;20200;-76
2021/12/26 07:02:45;;;;;;;20.77;13.90;;;4.90;99.90;;;;;;5045056;28;20223;-76
2021/12/26 07:05:31;;;;;;;22.05;14.95;;;4.90;99.90;;;;;;5046601;28;20200;-76
2021/12/26 07:08:17;;;;;;;16.70;12.90;;;4.80;99.90;;;;;;5047490;28;20228;-76
2021/12/26 07:11:02;;;;;;;22.00;14.48;;;4.80;99.90;;;;;;5044912;28;20193;-76
2021/12/26 07:13:48;;;;;;;20.13;13.98;;;4.80;99.90;;;;;;5043705;28;20208;-76
2021/12/26 07:16:34;;;;;;;20.65;13.45;;;4.80;99.90;;;;;;5051028;28;20201;-76
2021/12/26 07:19:20;;;;;;;17.27;13.55;;;4.70;99.90;;;;;;5055096;28;20258;-76
2021/12/26 07:22:08;;;;;;;21.38;13.68;;;4.70;99.90;;;;;;5047072;28;20585;-76
2021/12/26 07:24:53;;;;;;;18.35;12.95;;;4.70;99.90;;;;;;5048875;28;20694;-76
2021/12/26 07:27:39;;;;;;;19.42;14.38;;;4.70;99.90;;;;;;5056253;28;20200;-76
2021/12/26 07:30:25;;;;;;;19.55;13.82;;;4.70;99.90;;;;;;5052772;28;20225;-76
2021/12/26 07:33:10;;;;;;;17.33;12.82;;;4.70;99.90;;;;;;5047722;28;20584;-76
2021/12/26 07:35:57;;;;;;;18.73;13.60;;;4.70;99.90;;;;;;5053243;28;20672;-77
2021/12/26 07:38:43;;;;;;;18.70;13.52;;;4.70;99.90;;;;;;5050399;28;20296;-76
2021/12/26 07:41:28;;;;;;;20.42;13.68;;;4.70;99.90;;;;;;5048494;28;20348;-77
2021/12/26 07:44:14;;;;;;;20.45;14.00;;;4.70;99.90;;;;;;5050875;28;20295;-76
2021/12/26 07:46:59;;;;;;;19.75;13.68;;;4.80;99.90;;;;;;5050800;28;20247;-76
2021/12/26 07:49:45;;;;;;;19.00;14.25;;;4.80;99.90;;;;;;5048925;28;20318;-76
2021/12/26 07:52:37;;;;;;;18.63;12.65;;;4.80;99.90;;;;;;5041439;28;20241;-77
2021/12/26 07:55:23;;;;;;;21.50;14.85;;;4.80;99.90;;;;;;5052437;28;20652;-76
2021/12/26 07:58:08;;;;;;;21.65;13.52;;;4.80;99.90;;;;;;5052447;28;20729;-76
2021/12/26 08:00:54;;;;;;;19.98;14.57;;;4.80;99.90;;;;;;5051290;28;20207;-76
2021/12/26 08:03:40;;;;;;;20.25;14.18;;;4.70;99.90;;;;;;5043442;28;20201;-76
2021/12/26 08:06:25;;;;;;;22.08;14.25;;;4.60;99.90;;;;;;5047448;28;20201;-76
2021/12/26 08:09:12;;;;;;;19.77;13.73;;;4.70;99.90;;;;;;5068362;22;20270;-73
2021/12/26 08:11:58;;;;;;;20.70;14.40;;;4.80;99.90;;;;;;5049348;28;20662;-73
2021/12/26 08:14:43;;;;;;;21.73;14.50;;;4.80;99.90;;;;;;5049569;28;20209;-73
2021/12/26 08:17:29;;;;;;;21.13;13.38;;;4.70;99.90;;;;;;5044833;28;20209;-73
2021/12/26 08:20:15;;;;;;;19.08;13.30;;;4.80;99.90;;;;;;5014217;28;20198;-73
2021/12/26 08:23:01;;;;;;;32.85;14.25;;;4.90;99.90;;;;;;5029341;28;20324;-73
2021/12/26 08:25:48;;;;;;;22.05;13.73;;;4.90;99.90;;;;;;5030409;28;20217;-73
2021/12/26 08:28:34;;;;;;;22.00;13.40;;;5.00;99.90;;;;;;5028471;28;20260;-73
2021/12/26 08:31:21;;;;;;;22.17;14.70;;;5.00;99.90;;;;;;5021272;28;20275;-73
2021/12/26 08:34:07;;;;;;;26.92;15.05;;;5.00;99.90;;;;;;5018871;28;20213;-73
2021/12/26 08:36:59;;;;;;;25.77;14.15;;;5.00;99.90;;;;;;5025262;28;20718;-73
2021/12/26 08:39:46;;;;;;;20.42;14.88;;;5.10;99.90;;;;;;5033404;28;20237;-73
2021/12/26 08:42:33;;;;;;;17.30;12.88;;;5.10;99.90;;;;;;5026333;28;20292;-72
2021/12/26 08:45:19;;;;;;;21.42;14.57;;;5.10;99.90;;;;;;5031130;28;20245;-72
2021/12/26 08:48:05;;;;;;;19.60;13.07;;;5.10;99.90;;;;;;5033554;28;20210;-72
2021/12/26 08:50:55;;;;;;;21.88;13.75;;;5.10;99.90;;;;;;5030536;28;20706;-72
2021/12/26 08:53:41;;;;;;;19.23;12.70;;;5.20;99.90;;;;;;5030744;28;20629;-72
2021/12/26 08:56:26;;;;;;;17.88;12.27;;;5.10;99.90;;;;;;5022694;28;20219;-72
2021/12/26 08:59:13;;;;;;;20.05;12.52;;;5.20;99.90;;;;;;5021512;28;20221;-72
2021/12/26 09:02:02;;;;;;;21.95;12.52;;;5.20;99.90;;;;;;5022946;28;20314;-72
2021/12/26 09:04:48;;;;;;;19.75;13.65;;;5.20;99.90;;;;;;5033003;28;20201;-73
2021/12/26 09:07:33;;;;;;;19.27;12.63;;;5.20;99.90;;;;;;5013370;28;20198;-72
2021/12/26 09:10:19;;;;;;;20.55;13.15;;;5.10;99.90;;;;;;5014605;28;20226;-72
2021/12/26 09:13:04;;;;;;;23.10;12.77;;;5.10;99.90;;;;;;5026588;28;20201;-72
2021/12/26 09:15:52;;;;;;;22.35;13.48;;;5.10;99.90;;;;;;5032222;28;20245;-72
2021/12/26 09:18:37;;;;;;;19.73;13.60;;;5.20;99.90;;;;;;5032771;28;20698;-72
2021/12/26 09:21:23;;;;;;;20.48;13.82;;;5.20;99.90;;;;;;5029222;28;20276;-72
2021/12/26 09:24:09;;;;;;;23.00;14.77;;;5.20;99.90;;;;;;5030362;28;20993;-72
2021/12/26 09:26:54;;;;;;;21.42;13.68;;;5.20;99.90;;;;;;5040103;28;20236;-72
2021/12/26 09:29:40;;;;;;;27.73;17.35;;;5.30;99.90;;;;;;5028311;28;20327;-72
2021/12/26 09:32:27;;;;;;;37.42;21.60;;;5.30;99.90;;;;;;5019574;28;20593;-72
2021/12/26 09:35:13;;;;;;;34.13;19.20;;;5.40;99.90;;;;;;5023589;28;20702;-72
2021/12/26 09:37:59;;;;;;;27.95;17.20;;;5.30;99.90;;;;;;5032002;28;20728;-72
2021/12/26 09:40:45;;;;;;;25.02;15.02;;;5.40;99.90;;;;;;5026338;28;20847;-72
2021/12/26 09:43:31;;;;;;;25.00;17.48;;;5.40;99.90;;;;;;5030409;28;20217;-72
2021/12/26 09:46:17;;;;;;;21.55;13.60;;;5.40;99.90;;;;;;5025264;28;20306;-72
2021/12/26 09:49:05;;;;;;;21.55;13.38;;;5.40;99.90;;;;;;5027755;28;20585;-73
2021/12/26 09:51:52;;;;;;;18.52;13.32;;;5.50;99.90;;;;;;5024252;28;20569;-72
2021/12/26 09:54:37;;;;;;;20.52;13.93;;;5.50;99.90;;;;;;5025491;28;20823;-72
2021/12/26 09:57:24;;;;;;;17.85;12.32;;;5.50;99.90;;;;;;5031787;28;20201;-72
2021/12/26 10:00:25;;;;;;;16.45;11.13;;;5.50;99.90;;;;;;5028045;28;20310;-72
2021/12/26 10:03:21;;;;;;;16.38;11.73;;;5.50;99.90;;;;;;5027134;28;20279;-72
2021/12/26 10:06:12;;;;;;;18.80;12.35;;;5.50;99.90;;;;;;5030951;28;20197;-73
2021/12/26 10:09:00;;;;;;;20.05;12.73;;;5.50;99.90;;;;;;5021890;28;20320;-73
2021/12/26 10:11:49;;;;;;;19.88;13.27;;;5.50;99.90;;;;;;5017758;28;20301;-71
2021/12/26 10:14:37;;;;;;;20.10;12.90;;;5.60;99.90;;;;;;5016204;28;20198;-72
2021/12/26 10:17:26;;;;;;;22.88;12.10;;;5.60;99.90;;;;;;5024961;28;20233;-73
2021/12/26 10:20:12;;;;;;;16.05;10.73;;;5.60;99.90;;;;;;5021370;28;20237;-73
2021/12/26 10:23:26;;;;;;;18.90;12.45;;;5.60;99.90;;;;;;5012625;28;20285;-72
2021/12/26 10:26:19;;;;;;;19.42;12.57;;;5.50;99.90;;;;;;5034715;28;20713;-72
2021/12/26 10:29:11;;;;;;;17.65;12.13;;;5.50;99.90;;;;;;5023465;28;20317;-71
2021/12/26 10:32:00;;;;;;;18.73;12.07;;;5.50;99.90;;;;;;5025618;28;20723;-71
2021/12/26 10:34:49;;;;;;;17.83;12.70;;;5.60;99.90;;;;;;5025769;28;20340;-73
2021/12/26 10:37:38;;;;;;;18.67;12.55;;;5.60;99.90;;;;;;5024297;28;20230;-73
2021/12/26 10:40:27;;;;;;;21.60;13.80;;;5.60;99.90;;;;;;5019393;28;20349;-72
2021/12/26 10:43:13;;;;;;;22.73;15.65;;;5.60;99.90;;;;;;5017007;28;20202;-73
2021/12/26 10:46:14;;;;;;;20.27;14.10;;;5.60;99.90;;;;;;5027321;28;20202;-73
2021/12/26 10:49:21;;;;;;;20.02;13.07;;;5.60;99.90;;;;;;5021640;28;20296;-72
2021/12/26 10:52:17;;;;;;;19.17;12.63;;;5.70;99.90;;;;;;5024174;28;20284;-73
2021/12/26 10:55:11;;;;;;;18.27;12.60;;;5.70;99.90;;;;;;5025227;28;20284;-73
2021/12/26 10:58:00;;;;;;;18.08;12.35;;;5.70;99.90;;;;;;5030278;28;20341;-73
2021/12/26 11:00:48;;;;;;;19.40;12.15;;;5.70;99.90;;;;;;5019616;28;20205;-73
2021/12/26 11:03:34;;;;;;;21.10;13.15;;;5.80;99.90;;;;;;5027136;28;20443;-73
2021/12/26 11:06:22;;;;;;;21.23;12.48;;;5.80;99.90;;;;;;5022480;28;20205;-73
2021/12/26 11:09:18;;;;;;;16.55;10.85;;;5.90;99.90;;;;;;5032129;28;20280;-73
2021/12/26 11:12:07;;;;;;;15.63;10.43;;;5.90;99.90;;;;;;5030726;28;20233;-72
2021/12/26 11:15:03;;;;;;;18.20;11.88;;;5.90;99.90;;;;;;5024247;28;20739;-71
2021/12/26 11:17:51;;;;;;;15.35;10.80;;;5.90;99.90;;;;;;5025391;28;20256;-72
2021/12/26 11:20:38;;;;;;;19.73;12.27;;;6.00;99.90;;;;;;5029629;28;20198;-72
2021/12/26 11:23:26;;;;;;;18.45;13.02;;;6.00;99.90;;;;;;5024094;28;20694;-74
2021/12/26 11:26:13;;;;;;;20.40;13.25;;;6.00;99.90;;;;;;5030441;28;20651;-74
2021/12/26 11:28:59;;;;;;;16.45;11.57;;;6.10;99.90;;;;;;5028933;28;20233;-73
2021/12/26 11:31:47;;;;;;;20.05;13.38;;;6.10;99.90;;;;;;5030305;28;20229;-72
2021/12/26 11:34:32;;;;;;;18.15;11.77;;;6.10;99.90;;;;;;5020494;28;20687;-72
2021/12/26 11:37:19;;;;;;;18.65;11.82;;;6.20;99.90;;;;;;5025166;28;20225;-73
2021/12/26 11:40:08;;;;;;;18.10;12.40;;;6.20;99.90;;;;;;5021399;28;20324;-71
2021/12/26 11:43:19;;;;;;;16.95;12.32;;;6.10;99.90;;;;;;5030349;28;20209;-71
2021/12/26 11:46:16;;;;;;;17.67;10.82;;;6.20;99.90;;;;;;5025949;28;20775;-72
2021/12/26 11:49:33;;;;;;;16.58;11.48;;;6.10;99.90;;;;;;5027033;28;20608;-73
2021/12/26 11:52:42;;;;;;;16.30;10.70;;;6.10;99.90;;;;;;5024954;28;20720;-72
2021/12/26 11:55:41;;;;;;;15.27;10.52;;;6.20;99.90;;;;;;5026202;28;20201;-73
2021/12/26 11:58:42;;;;;;;15.50;10.73;;;6.20;99.90;;;;;;5027825;28;20619;-73
2021/12/26 12:01:29;;;;;;;13.73;10.07;;;6.30;99.90;;;;;;5025073;28;20224;-73
2021/12/26 12:04:18;;;;;;;18.00;11.77;;;6.30;99.90;;;;;;5030395;28;20205;-73
2021/12/26 12:07:08;;;;;;;22.10;11.38;;;6.40;99.90;;;;;;5030475;28;20205;-73
2021/12/26 12:09:54;;;;;;;14.77;10.05;;;6.40;99.90;;;;;;5026652;28;20597;-73
2021/12/26 12:12:42;;;;;;;15.88;10.65;;;6.40;99.90;;;;;;5024127;28;20216;-73
2021/12/26 12:15:51;;;;;;;15.70;11.27;;;6.40;99.90;;;;;;5027695;28;20202;-73
2021/12/26 12:18:38;;;;;;;15.02;10.93;;;6.30;99.90;;;;;;5021899;28;20220;-73
2021/12/26 12:21:30;;;;;;;18.08;9.98;;;6.40;99.90;;;;;;5017066;28;20302;-73
2021/12/26 12:24:20;;;;;;;17.23;10.00;;;6.40;99.90;;;;;;5016848;28;20798;-73
2021/12/26 12:27:09;;;;;;;14.88;10.90;;;6.50;99.90;;;;;;5038257;28;20217;-73
2021/12/26 12:29:54;;;;;;;17.98;10.23;;;6.50;99.90;;;;;;5027593;28;20671;-73
2021/12/26 12:32:40;;;;;;;18.02;11.60;;;6.50;99.90;;;;;;5031996;28;20209;-73
2021/12/26 12:35:45;;;;;;;16.67;11.07;;;6.50;99.90;;;;;;5019974;28;20300;-73
2021/12/26 12:38:39;;;;;;;17.33;10.77;;;6.50;99.90;;;;;;5020268;28;20229;-73
2021/12/26 12:41:39;;;;;;;13.98;9.95;;;6.50;99.90;;;;;;5031489;28;20190;-73
2021/12/26 12:44:36;;;;;;;14.27;9.27;;;6.50;99.90;;;;;;5019136;28;20213;-73
2021/12/26 12:47:24;;;;;;;13.32;8.95;;;6.60;99.90;;;;;;5025761;28;20198;-73
2021/12/26 12:50:10;;;;;;;17.77;10.57;;;6.60;99.90;;;;;;5019145;28;20587;-73
2021/12/26 12:52:59;;;;;;;15.18;10.20;;;6.60;99.90;;;;;;5023266;28;20209;-72
2021/12/26 12:55:51;;;;;;;17.30;11.10;;;6.50;99.90;;;;;;5028274;28;20268;-72
2021/12/26 12:58:38;;;;;;;16.95;11.32;;;6.40;99.90;;;;;;5028481;28;20383;-73
2021/12/26 13:01:38;;;;;;;17.65;10.75;;;6.50;99.90;;;;;;5031018;28;20193;-73
2021/12/26 13:04:25;;;;;;;15.98;11.15;;;6.50;99.90;;;;;;5019209;28;20332;-73
2021/12/26 13:07:15;;;;;;;18.05;12.10;;;6.60;99.90;;;;;;5030561;28;20201;-73
2021/12/26 13:10:10;;;;;;;17.65;11.02;;;6.60;99.90;;;;;;5012857;28;20265;-72
2021/12/26 13:13:04;;;;;;;18.67;11.23;;;6.60;99.90;;;;;;5020330;28;20202;-72
2021/12/26 13:15:56;;;;;;;15.20;9.80;;;6.60;99.90;;;;;;5028471;28;20193;-71
2021/12/26 13:18:42;;;;;;;17.13;10.43;;;6.50;99.90;;;;;;5028461;28;20696;-71
2021/12/26 13:21:28;;;;;;;14.65;10.23;;;6.50;99.90;;;;;;5029009;28;20322;-72
2021/12/26 13:24:14;;;;;;;17.50;11.48;;;6.50;99.90;;;;;;5032474;28;20198;-71
2021/12/26 13:27:00;;;;;;;17.53;10.87;;;6.50;99.90;;;;;;5029624;28;20202;-70
2021/12/26 13:29:49;;;;;;;16.10;10.20;;;6.60;99.90;;;;;;5023918;28;20467;-69
2021/12/26 13:32:40;;;;;;;21.25;11.57;;;6.60;99.90;;;;;;5023357;28;20221;-71
2021/12/26 13:35:34;;;;;;;14.82;10.45;;;6.60;99.90;;;;;;5018623;28;20206;-71
2021/12/26 13:38:20;;;;;;;13.95;9.20;;;6.50;99.90;;;;;;5021217;28;20234;-71
2021/12/26 13:41:08;;;;;;;15.32;9.80;;;6.60;99.90;;;;;;5020099;28;20280;-71
2021/12/26 13:43:56;;;;;;;15.75;11.40;;;6.60;99.90;;;;;;5024368;28;20569;-71
2021/12/26 13:46:42;;;;;;;16.33;11.45;;;6.60;99.90;;;;;;5013602;28;20567;-70
2021/12/26 13:49:29;;;;;;;16.75;10.95;;;6.60;99.90;;;;;;5016471;28;20225;-70
2021/12/26 13:52:19;;;;;;;14.95;10.38;;;6.50;99.90;;;;;;5015003;28;20225;-70
2021/12/26 13:55:06;;;;;;;16.15;10.35;;;6.50;99.90;;;;;;5019936;28;20206;-71
2021/12/26 13:57:57;;;;;;;17.70;10.60;;;6.50;99.90;;;;;;5026546;28;20209;-71
2021/12/26 14:00:47;;;;;;;13.27;10.05;;;6.50;99.90;;;;;;5022733;28;20201;-71
2021/12/26 14:03:33;;;;;;;12.40;8.90;;;6.50;99.90;;;;;;5027975;28;20682;-71
2021/12/26 14:06:29;;;;;;;18.38;10.43;;;6.50;99.90;;;;;;5023399;28;20787;-71
2021/12/26 14:09:15;;;;;;;14.88;9.02;;;6.40;99.90;;;;;;5044382;22;20233;-72
2021/12/26 14:12:00;;;;;;;13.77;10.20;;;6.40;99.90;;;;;;5041326;28;20295;-71
2021/12/26 14:14:46;;;;;;;20.80;12.07;;;6.40;99.90;;;;;;5046503;28;20999;-71
2021/12/26 14:17:31;;;;;;;16.65;10.18;;;6.40;99.90;;;;;;5038304;28;20276;-71
2021/12/26 14:20:17;;;;;;;17.60;10.82;;;6.40;99.90;;;;;;5023407;28;20616;-71
2021/12/26 14:23:17;;;;;;;18.10;12.07;;;6.40;99.90;;;;;;5030803;28;20201;-71
2021/12/26 14:26:08;;;;;;;15.75;10.35;;;6.50;99.90;;;;;;5019010;28;20209;-71